AUA96F LOWW-ESSA
Flight info
| Callsign | AUA96F |
|---|---|
| Flight time | 2h 0m |
| Altitude | 36000 |
| Route | LEDVA DCT KATQA DCT VAGON DCT XIDNA DCT BEZMI DCT PENOR DCT VSB DCT ROGMI Z229 NILUG NILU2P |
| Aircraft | A320/M-SDE3FGHIRWY/LB1 |
Departure
| Time | 2026-05-01 12:39 |
|---|---|
| Airport | Vienna International Airport (LOWW) |
Arrival
| Time | 2026-05-01 14:40 |
|---|---|
| Airport | Stockholm-Arlanda Airport (ESSA) |
| Time | Latitude | Longitude | Altitude | Speed | Heading |
|---|---|---|---|---|---|
| 2026-05-01 12:17 | 48.11996 | 16.57046 | 592 ft | 0 kts | 25° |
| 2026-05-01 12:32 | 48.11999 | 16.57048 | 592 ft | 1 kts | 25° |
| 2026-05-01 12:33 | 48.12020 | 16.57063 | 591 ft | 5 kts | 26° |
| 2026-05-01 12:33 | 48.12045 | 16.57109 | 589 ft | 6 kts | 78° |
| 2026-05-01 12:33 | 48.12035 | 16.57165 | 590 ft | 4 kts | 113° |
| 2026-05-01 12:33 | 48.12021 | 16.57212 | 590 ft | 4 kts | 115° |
| 2026-05-01 12:34 | 48.12003 | 16.57251 | 590 ft | 4 kts | 136° |
| 2026-05-01 12:34 | 48.11979 | 16.57272 | 591 ft | 4 kts | 158° |
| 2026-05-01 12:34 | 48.11952 | 16.57285 | 592 ft | 3 kts | 164° |
| 2026-05-01 12:34 | 48.11929 | 16.57295 | 592 ft | 3 kts | 165° |
| 2026-05-01 12:35 | 48.11897 | 16.57308 | 593 ft | 5 kts | 165° |
| 2026-05-01 12:35 | 48.11856 | 16.57325 | 595 ft | 6 kts | 165° |
| 2026-05-01 12:35 | 48.11803 | 16.57347 | 596 ft | 8 kts | 165° |
| 2026-05-01 12:35 | 48.11745 | 16.57371 | 597 ft | 8 kts | 165° |
| 2026-05-01 12:36 | 48.11681 | 16.57398 | 599 ft | 10 kts | 165° |
| 2026-05-01 12:36 | 48.11609 | 16.57429 | 599 ft | 11 kts | 163° |
| 2026-05-01 12:36 | 48.11521 | 16.57459 | 599 ft | 13 kts | 178° |
| 2026-05-01 12:36 | 48.11432 | 16.57417 | 600 ft | 13 kts | 210° |
| 2026-05-01 12:37 | 48.11350 | 16.57358 | 601 ft | 13 kts | 205° |
| 2026-05-01 12:37 | 48.11269 | 16.57298 | 603 ft | 12 kts | 206° |
| 2026-05-01 12:37 | 48.11192 | 16.57318 | 602 ft | 12 kts | 129° |
| 2026-05-01 12:37 | 48.11153 | 16.57455 | 599 ft | 15 kts | 115° |
| 2026-05-01 12:38 | 48.11067 | 16.57508 | 599 ft | 15 kts | 199° |
| 2026-05-01 12:38 | 48.10973 | 16.57438 | 600 ft | 14 kts | 237° |
| 2026-05-01 12:38 | 48.10990 | 16.57302 | 603 ft | 16 kts | 296° |
| 2026-05-01 12:38 | 48.11136 | 16.56856 | 603 ft | 81 kts | 295° |
| 2026-05-01 12:39 | 48.11478 | 16.55800 | 586 ft | 141 kts | 297° |
| 2026-05-01 12:39 | 48.11952 | 16.54352 | 913 ft | 158 kts | 297° |
| 2026-05-01 12:39 | 48.12291 | 16.52845 | 1526 ft | 157 kts | 277° |
| 2026-05-01 12:39 | 48.12175 | 16.51170 | 1991 ft | 168 kts | 261° |
| 2026-05-01 12:40 | 48.11913 | 16.49450 | 2479 ft | 176 kts | 260° |
| 2026-05-01 12:40 | 48.11673 | 16.47589 | 2876 ft | 190 kts | 270° |
| 2026-05-01 12:40 | 48.11742 | 16.45531 | 3274 ft | 205 kts | 281° |
| 2026-05-01 12:40 | 48.11961 | 16.43355 | 3685 ft | 221 kts | 283° |
| 2026-05-01 12:41 | 48.12226 | 16.40980 | 4043 ft | 243 kts | 283° |
| 2026-05-01 12:41 | 48.12505 | 16.38456 | 4667 ft | 252 kts | 282° |
| 2026-05-01 12:41 | 48.12790 | 16.35808 | 5152 ft | 268 kts | 282° |
| 2026-05-01 12:41 | 48.13084 | 16.33033 | 5840 ft | 275 kts | 281° |
| 2026-05-01 12:42 | 48.13378 | 16.30192 | 6658 ft | 278 kts | 281° |
| 2026-05-01 12:42 | 48.13673 | 16.27341 | 7435 ft | 281 kts | 281° |
| 2026-05-01 12:42 | 48.13973 | 16.24440 | 8179 ft | 286 kts | 282° |
| 2026-05-01 12:42 | 48.14510 | 16.21608 | 8873 ft | 284 kts | 304° |
| 2026-05-01 12:43 | 48.15809 | 16.19519 | 9577 ft | 276 kts | 333° |
| 2026-05-01 12:43 | 48.17501 | 16.18242 | 10309 ft | 276 kts | 340° |
| 2026-05-01 12:43 | 48.19256 | 16.17011 | 10956 ft | 284 kts | 339° |
| 2026-05-01 12:43 | 48.21099 | 16.15753 | 11313 ft | 298 kts | 345° |
| 2026-05-01 12:44 | 48.23163 | 16.15332 | 11752 ft | 301 kts | 8° |
| 2026-05-01 12:44 | 48.25150 | 16.16132 | 12442 ft | 299 kts | 27° |
| 2026-05-01 12:44 | 48.28410 | 16.19980 | 13849 ft | 301 kts | 41° |
| 2026-05-01 12:45 | 48.31563 | 16.24103 | 15166 ft | 305 kts | 41° |
| 2026-05-01 12:45 | 48.33158 | 16.26192 | 15782 ft | 308 kts | 41° |
| 2026-05-01 12:45 | 48.34773 | 16.28313 | 16386 ft | 310 kts | 41° |
| 2026-05-01 12:46 | 48.36380 | 16.30424 | 17000 ft | 312 kts | 41° |
| 2026-05-01 12:46 | 48.38020 | 16.32582 | 17573 ft | 314 kts | 41° |
| 2026-05-01 12:46 | 48.39679 | 16.34769 | 18134 ft | 317 kts | 42° |
| 2026-05-01 12:46 | 48.41325 | 16.36939 | 18683 ft | 319 kts | 42° |
| 2026-05-01 12:47 | 48.42998 | 16.39151 | 19225 ft | 321 kts | 42° |
| 2026-05-01 12:47 | 48.44672 | 16.41367 | 19769 ft | 323 kts | 41° |
| 2026-05-01 12:47 | 48.46352 | 16.43590 | 20296 ft | 325 kts | 41° |
| 2026-05-01 12:47 | 48.48066 | 16.45862 | 20826 ft | 327 kts | 41° |
| 2026-05-01 12:48 | 48.49766 | 16.48115 | 21342 ft | 329 kts | 41° |
| 2026-05-01 12:48 | 48.51482 | 16.50389 | 21840 ft | 331 kts | 41° |
| 2026-05-01 12:48 | 48.53206 | 16.52680 | 22311 ft | 333 kts | 41° |
| 2026-05-01 12:48 | 48.54945 | 16.54989 | 22779 ft | 335 kts | 41° |
| 2026-05-01 12:49 | 48.56685 | 16.57305 | 23255 ft | 337 kts | 41° |
| 2026-05-01 12:49 | 48.58445 | 16.59649 | 23710 ft | 339 kts | 41° |
| 2026-05-01 12:49 | 48.60215 | 16.62010 | 24136 ft | 341 kts | 41° |
| 2026-05-01 12:49 | 48.62003 | 16.64394 | 24562 ft | 343 kts | 41° |
| 2026-05-01 12:50 | 48.63790 | 16.66782 | 24999 ft | 345 kts | 41° |
| 2026-05-01 12:50 | 48.65573 | 16.69165 | 25412 ft | 347 kts | 42° |
| 2026-05-01 12:50 | 48.67385 | 16.71590 | 25790 ft | 349 kts | 41° |
| 2026-05-01 12:50 | 48.69189 | 16.74009 | 26167 ft | 351 kts | 41° |
| 2026-05-01 12:51 | 48.71032 | 16.76478 | 26533 ft | 353 kts | 41° |
| 2026-05-01 12:51 | 48.72847 | 16.78974 | 26886 ft | 356 kts | 43° |
| 2026-05-01 12:51 | 48.76340 | 16.84297 | 27586 ft | 359 kts | 45° |
| 2026-05-01 12:52 | 48.78075 | 16.86980 | 27906 ft | 361 kts | 45° |
| 2026-05-01 12:52 | 48.81610 | 16.92451 | 28549 ft | 365 kts | 45° |
| 2026-05-01 12:52 | 48.83389 | 16.95206 | 28866 ft | 367 kts | 45° |
| 2026-05-01 12:53 | 48.86965 | 17.00758 | 29472 ft | 369 kts | 45° |
| 2026-05-01 12:53 | 48.88760 | 17.03546 | 29726 ft | 372 kts | 45° |
| 2026-05-01 12:53 | 48.90566 | 17.06359 | 29998 ft | 373 kts | 45° |
| 2026-05-01 12:54 | 48.92352 | 17.09143 | 30287 ft | 374 kts | 45° |
| 2026-05-01 12:54 | 48.95998 | 17.14841 | 30778 ft | 378 kts | 45° |
| 2026-05-01 12:54 | 48.97915 | 17.17589 | 31000 ft | 379 kts | 38° |
| 2026-05-01 12:55 | 49.02452 | 17.21666 | 31425 ft | 384 kts | 24° |
| 2026-05-01 12:55 | 49.04966 | 17.22926 | 31625 ft | 387 kts | 16° |
| 2026-05-01 12:55 | 49.07638 | 17.23631 | 31826 ft | 392 kts | 9° |
| 2026-05-01 12:56 | 49.10369 | 17.23750 | 32026 ft | 396 kts | 3° |
| 2026-05-01 12:56 | 49.13128 | 17.23652 | 32224 ft | 398 kts | 2° |
| 2026-05-01 12:56 | 49.15920 | 17.23521 | 32429 ft | 400 kts | 2° |
| 2026-05-01 12:56 | 49.18679 | 17.23379 | 32629 ft | 401 kts | 2° |
| 2026-05-01 12:57 | 49.21463 | 17.23232 | 32867 ft | 401 kts | 2° |
| 2026-05-01 12:57 | 49.27013 | 17.22934 | 33389 ft | 399 kts | 2° |
| 2026-05-01 12:57 | 49.29757 | 17.22788 | 33637 ft | 398 kts | 2° |
| 2026-05-01 12:58 | 49.32528 | 17.22640 | 33859 ft | 397 kts | 2° |
| 2026-05-01 12:58 | 49.35274 | 17.22491 | 34098 ft | 396 kts | 2° |
| 2026-05-01 12:58 | 49.38039 | 17.22340 | 34324 ft | 396 kts | 2° |
| 2026-05-01 12:59 | 49.43513 | 17.22047 | 34696 ft | 396 kts | 2° |
| 2026-05-01 12:59 | 49.46277 | 17.21897 | 34842 ft | 397 kts | 2° |
| 2026-05-01 12:59 | 49.51774 | 17.21599 | 35092 ft | 399 kts | 2° |
| 2026-05-01 13:00 | 49.57344 | 17.21297 | 35365 ft | 400 kts | 1° |
| 2026-05-01 13:00 | 49.60120 | 17.21147 | 35491 ft | 401 kts | 1° |
| 2026-05-01 13:01 | 49.65700 | 17.20843 | 35742 ft | 402 kts | 2° |
| 2026-05-01 13:01 | 49.68463 | 17.20692 | 35841 ft | 403 kts | 1° |
| 2026-05-01 13:01 | 49.74068 | 17.20385 | 36018 ft | 405 kts | 1° |
| 2026-05-01 13:02 | 49.76900 | 17.20229 | 36127 ft | 405 kts | 1° |
| 2026-05-01 13:07 | 50.36276 | 17.16928 | 36337 ft | 408 kts | 1° |
| 2026-05-01 13:07 | 50.39099 | 17.16769 | 36336 ft | 409 kts | 1° |
| 2026-05-01 13:08 | 50.44785 | 17.16448 | 36333 ft | 409 kts | 1° |
| 2026-05-01 13:08 | 50.50428 | 17.16129 | 36331 ft | 409 kts | 1° |
| 2026-05-01 13:09 | 50.56088 | 17.15809 | 36330 ft | 409 kts | 1° |
| 2026-05-01 13:09 | 50.61790 | 17.15484 | 36333 ft | 409 kts | 1° |
| 2026-05-01 13:10 | 50.67477 | 17.15161 | 36336 ft | 410 kts | 1° |
| 2026-05-01 13:10 | 50.73144 | 17.14838 | 36337 ft | 410 kts | 1° |
| 2026-05-01 13:11 | 50.78821 | 17.14511 | 36338 ft | 410 kts | 1° |
| 2026-05-01 13:11 | 50.84539 | 17.14183 | 36347 ft | 410 kts | 1° |
| 2026-05-01 13:12 | 50.90227 | 17.13855 | 36355 ft | 410 kts | 1° |
| 2026-05-01 13:12 | 50.95887 | 17.13529 | 36356 ft | 410 kts | 0° |
| 2026-05-01 13:13 | 51.01570 | 17.13200 | 36359 ft | 411 kts | 0° |
| 2026-05-01 13:13 | 51.07261 | 17.12868 | 36364 ft | 410 kts | 1° |
| 2026-05-01 13:14 | 51.12959 | 17.12535 | 36364 ft | 410 kts | 0° |
| 2026-05-01 13:14 | 51.18644 | 17.12200 | 36359 ft | 411 kts | 1° |
| 2026-05-01 13:15 | 51.24342 | 17.11867 | 36364 ft | 412 kts | 1° |
| 2026-05-01 13:15 | 51.30064 | 17.11373 | 36357 ft | 413 kts | 357° |
| 2026-05-01 13:16 | 51.35759 | 17.10039 | 36359 ft | 415 kts | 353° |
| 2026-05-01 13:16 | 51.41378 | 17.08376 | 36359 ft | 414 kts | 353° |
| 2026-05-01 13:17 | 51.52690 | 17.04990 | 36357 ft | 415 kts | 353° |
| 2026-05-01 13:18 | 51.61212 | 17.02437 | 36359 ft | 415 kts | 352° |
| 2026-05-01 13:18 | 51.66855 | 17.01025 | 36357 ft | 413 kts | 357° |
| 2026-05-01 13:19 | 51.72587 | 17.00541 | 36359 ft | 411 kts | 2° |
| 2026-05-01 13:20 | 51.81088 | 17.01384 | 36355 ft | 411 kts | 7° |
| 2026-05-01 13:20 | 51.86793 | 17.02207 | 36350 ft | 412 kts | 7° |
| 2026-05-01 13:21 | 51.95311 | 17.03441 | 36339 ft | 411 kts | 7° |
| 2026-05-01 13:21 | 52.00986 | 17.04264 | 36340 ft | 410 kts | 7° |
| 2026-05-01 13:22 | 52.06636 | 17.05087 | 36339 ft | 411 kts | 7° |
| 2026-05-01 13:22 | 52.12353 | 17.05919 | 36340 ft | 413 kts | 7° |
| 2026-05-01 13:23 | 52.18033 | 17.06748 | 36338 ft | 412 kts | 7° |
| 2026-05-01 13:23 | 52.23711 | 17.07578 | 36338 ft | 411 kts | 7° |
| 2026-05-01 13:24 | 52.29398 | 17.08413 | 36339 ft | 411 kts | 7° |
| 2026-05-01 13:25 | 52.37944 | 17.09673 | 36344 ft | 412 kts | 7° |
| 2026-05-01 13:25 | 52.43607 | 17.10509 | 36344 ft | 412 kts | 7° |
| 2026-05-01 13:26 | 52.49334 | 17.11358 | 36346 ft | 412 kts | 7° |
| 2026-05-01 13:26 | 52.55001 | 17.12199 | 36343 ft | 412 kts | 7° |
| 2026-05-01 13:27 | 52.60707 | 17.13048 | 36348 ft | 412 kts | 6° |
| 2026-05-01 13:27 | 52.69243 | 17.14323 | 36347 ft | 412 kts | 7° |
| 2026-05-01 13:28 | 52.77779 | 17.15603 | 36342 ft | 412 kts | 7° |
| 2026-05-01 13:29 | 52.89135 | 17.17316 | 36337 ft | 412 kts | 6° |
| 2026-05-01 13:31 | 53.06272 | 17.19911 | 36338 ft | 412 kts | 7° |
| 2026-05-01 13:32 | 53.20470 | 17.22083 | 36332 ft | 412 kts | 7° |
| 2026-05-01 13:33 | 53.34738 | 17.24277 | 36343 ft | 413 kts | 6° |
| 2026-05-01 13:34 | 53.46130 | 17.26038 | 36338 ft | 413 kts | 7° |
| 2026-05-01 13:35 | 53.54692 | 17.27370 | 36336 ft | 413 kts | 6° |
| 2026-05-01 13:36 | 53.63245 | 17.28706 | 36337 ft | 413 kts | 6° |
| 2026-05-01 13:36 | 53.71777 | 17.30040 | 36335 ft | 413 kts | 6° |
| 2026-05-01 13:37 | 53.77494 | 17.30939 | 36334 ft | 413 kts | 6° |
| 2026-05-01 13:37 | 53.83197 | 17.31838 | 36335 ft | 413 kts | 6° |
| 2026-05-01 13:38 | 53.91753 | 17.33193 | 36336 ft | 413 kts | 6° |
| 2026-05-01 13:39 | 53.97463 | 17.34099 | 36337 ft | 413 kts | 6° |
| 2026-05-01 13:39 | 54.03135 | 17.35000 | 36334 ft | 413 kts | 6° |
| 2026-05-01 13:40 | 54.08868 | 17.35915 | 36328 ft | 414 kts | 6° |
| 2026-05-01 13:40 | 54.14555 | 17.36824 | 36336 ft | 413 kts | 6° |
| 2026-05-01 13:41 | 54.20244 | 17.37736 | 36333 ft | 413 kts | 6° |
| 2026-05-01 13:41 | 54.25978 | 17.38657 | 36334 ft | 414 kts | 6° |
| 2026-05-01 13:42 | 54.31685 | 17.39575 | 36331 ft | 414 kts | 6° |
| 2026-05-01 13:42 | 54.37416 | 17.40213 | 36332 ft | 415 kts | 2° |
| 2026-05-01 13:43 | 54.43170 | 17.39846 | 36331 ft | 417 kts | 356° |
| 2026-05-01 13:43 | 54.48920 | 17.38806 | 36327 ft | 416 kts | 355° |
| 2026-05-01 13:44 | 54.54636 | 17.37707 | 36330 ft | 416 kts | 355° |
| 2026-05-01 13:44 | 54.60372 | 17.36605 | 36329 ft | 417 kts | 355° |
| 2026-05-01 13:45 | 54.66117 | 17.35498 | 36331 ft | 417 kts | 355° |
| 2026-05-01 13:45 | 54.71858 | 17.34391 | 36328 ft | 417 kts | 355° |
| 2026-05-01 13:46 | 54.77616 | 17.33276 | 36327 ft | 417 kts | 355° |
| 2026-05-01 13:46 | 54.83358 | 17.32162 | 36329 ft | 417 kts | 355° |
| 2026-05-01 13:47 | 54.89093 | 17.31046 | 36332 ft | 417 kts | 355° |
| 2026-05-01 13:47 | 54.94830 | 17.29928 | 36329 ft | 418 kts | 355° |
| 2026-05-01 13:48 | 55.00601 | 17.28798 | 36329 ft | 418 kts | 355° |
| 2026-05-01 13:48 | 55.06350 | 17.27670 | 36325 ft | 418 kts | 355° |
| 2026-05-01 13:49 | 55.12113 | 17.26536 | 36326 ft | 417 kts | 355° |
| 2026-05-01 13:49 | 55.17871 | 17.25399 | 36329 ft | 418 kts | 355° |
| 2026-05-01 13:50 | 55.23633 | 17.24259 | 36329 ft | 419 kts | 355° |
| 2026-05-01 13:50 | 55.29389 | 17.23115 | 36319 ft | 419 kts | 355° |
| 2026-05-01 13:51 | 55.35141 | 17.21968 | 36311 ft | 418 kts | 355° |
| 2026-05-01 13:51 | 55.40885 | 17.20819 | 36306 ft | 418 kts | 354° |
| 2026-05-01 13:52 | 55.46663 | 17.19659 | 36298 ft | 418 kts | 354° |
| 2026-05-01 13:52 | 55.52401 | 17.18502 | 36302 ft | 418 kts | 354° |
| 2026-05-01 13:53 | 55.58176 | 17.17641 | 36301 ft | 418 kts | 359° |
| 2026-05-01 13:53 | 55.66861 | 17.18699 | 36294 ft | 418 kts | 9° |
| 2026-05-01 13:54 | 55.72478 | 17.21014 | 36290 ft | 418 kts | 16° |
| 2026-05-01 13:54 | 55.78048 | 17.24075 | 36284 ft | 419 kts | 17° |
| 2026-05-01 13:55 | 55.83593 | 17.27186 | 36277 ft | 419 kts | 17° |
| 2026-05-01 13:55 | 55.89114 | 17.30290 | 36269 ft | 419 kts | 17° |
| 2026-05-01 13:56 | 55.94669 | 17.33419 | 36263 ft | 419 kts | 17° |
| 2026-05-01 13:56 | 56.00185 | 17.36535 | 36266 ft | 420 kts | 17° |
| 2026-05-01 13:57 | 56.04834 | 17.39168 | 36270 ft | 420 kts | 17° |
| 2026-05-01 13:57 | 56.11295 | 17.42840 | 36266 ft | 419 kts | 16° |
| 2026-05-01 13:58 | 56.16839 | 17.46000 | 36264 ft | 420 kts | 16° |
| 2026-05-01 13:58 | 56.22389 | 17.49172 | 36259 ft | 420 kts | 16° |
| 2026-05-01 13:59 | 56.27903 | 17.52333 | 36259 ft | 420 kts | 16° |
| 2026-05-01 13:59 | 56.33474 | 17.55536 | 36259 ft | 420 kts | 16° |
| 2026-05-01 14:00 | 56.39000 | 17.58725 | 36252 ft | 420 kts | 16° |
| 2026-05-01 14:00 | 56.44526 | 17.61923 | 36249 ft | 419 kts | 16° |
| 2026-05-01 14:01 | 56.50075 | 17.65144 | 36249 ft | 419 kts | 17° |
| 2026-05-01 14:01 | 56.55620 | 17.68372 | 36246 ft | 420 kts | 17° |
| 2026-05-01 14:02 | 56.61125 | 17.71586 | 36246 ft | 420 kts | 17° |
| 2026-05-01 14:02 | 56.66688 | 17.74845 | 36247 ft | 420 kts | 17° |
| 2026-05-01 14:03 | 56.72228 | 17.78100 | 36244 ft | 420 kts | 17° |
| 2026-05-01 14:03 | 56.77747 | 17.81353 | 36243 ft | 419 kts | 16° |
| 2026-05-01 14:04 | 56.83277 | 17.84624 | 36236 ft | 420 kts | 16° |
| 2026-05-01 14:04 | 56.87881 | 17.87353 | 36229 ft | 420 kts | 16° |
| 2026-05-01 14:05 | 56.94342 | 17.91196 | 36230 ft | 420 kts | 16° |
| 2026-05-01 14:05 | 56.99880 | 17.94501 | 36229 ft | 419 kts | 16° |
| 2026-05-01 14:06 | 57.05423 | 17.97819 | 36225 ft | 420 kts | 16° |
| 2026-05-01 14:06 | 57.10959 | 18.01143 | 36222 ft | 421 kts | 16° |
| 2026-05-01 14:07 | 57.16518 | 18.04492 | 36221 ft | 421 kts | 16° |
| 2026-05-01 14:08 | 57.24828 | 18.09519 | 36218 ft | 420 kts | 16° |
| 2026-05-01 14:08 | 57.30327 | 18.12857 | 36215 ft | 420 kts | 16° |
| 2026-05-01 14:09 | 57.35859 | 18.16225 | 36214 ft | 420 kts | 15° |
| 2026-05-01 14:09 | 57.41385 | 18.19600 | 36215 ft | 421 kts | 15° |
| 2026-05-01 14:10 | 57.46940 | 18.23004 | 36216 ft | 421 kts | 15° |
| 2026-05-01 14:10 | 57.52493 | 18.26418 | 36215 ft | 420 kts | 15° |
| 2026-05-01 14:11 | 57.58010 | 18.29780 | 36214 ft | 420 kts | 13° |
| 2026-05-01 14:11 | 57.63704 | 18.31702 | 35831 ft | 415 kts | 2° |
| 2026-05-01 14:11 | 57.66571 | 18.31832 | 35589 ft | 412 kts | 356° |
| 2026-05-01 14:12 | 57.69411 | 18.31424 | 35346 ft | 409 kts | 351° |
| 2026-05-01 14:12 | 57.72156 | 18.30507 | 35107 ft | 406 kts | 346° |
| 2026-05-01 14:12 | 57.74873 | 18.29080 | 34863 ft | 406 kts | 341° |
| 2026-05-01 14:12 | 57.77554 | 18.27412 | 34586 ft | 406 kts | 340° |
| 2026-05-01 14:13 | 57.80200 | 18.25717 | 34200 ft | 407 kts | 340° |
| 2026-05-01 14:13 | 57.82008 | 18.24551 | 33861 ft | 408 kts | 340° |
| 2026-05-01 14:13 | 57.85566 | 18.22251 | 33037 ft | 410 kts | 340° |
| 2026-05-01 14:13 | 57.88234 | 18.20526 | 32360 ft | 410 kts | 340° |
| 2026-05-01 14:14 | 57.90913 | 18.18792 | 31743 ft | 407 kts | 340° |
| 2026-05-01 14:14 | 57.93552 | 18.17085 | 31277 ft | 402 kts | 340° |
| 2026-05-01 14:14 | 57.96165 | 18.15391 | 30809 ft | 398 kts | 340° |
| 2026-05-01 14:14 | 57.98758 | 18.13708 | 30318 ft | 394 kts | 340° |
| 2026-05-01 14:15 | 58.01352 | 18.12022 | 29847 ft | 389 kts | 340° |
| 2026-05-01 14:15 | 58.03865 | 18.10386 | 29413 ft | 384 kts | 339° |
| 2026-05-01 14:15 | 58.06383 | 18.08744 | 28990 ft | 379 kts | 339° |
| 2026-05-01 14:15 | 58.08822 | 18.07150 | 28584 ft | 374 kts | 339° |
| 2026-05-01 14:16 | 58.11275 | 18.05544 | 28163 ft | 370 kts | 339° |
| 2026-05-01 14:16 | 58.13667 | 18.03977 | 27752 ft | 365 kts | 339° |
| 2026-05-01 14:16 | 58.16069 | 18.02409 | 27331 ft | 361 kts | 340° |
| 2026-05-01 14:16 | 58.18433 | 18.01114 | 26913 ft | 359 kts | 344° |
| 2026-05-01 14:17 | 58.20863 | 18.00147 | 26492 ft | 356 kts | 348° |
| 2026-05-01 14:17 | 58.23294 | 17.99521 | 26066 ft | 354 kts | 351° |
| 2026-05-01 14:17 | 58.25744 | 17.99046 | 25623 ft | 352 kts | 351° |
| 2026-05-01 14:17 | 58.28161 | 17.98599 | 25182 ft | 349 kts | 351° |
| 2026-05-01 14:18 | 58.30560 | 17.98156 | 24755 ft | 347 kts | 351° |
| 2026-05-01 14:18 | 58.32917 | 17.97721 | 24336 ft | 344 kts | 351° |
| 2026-05-01 14:18 | 58.35296 | 17.97278 | 23913 ft | 342 kts | 351° |
| 2026-05-01 14:18 | 58.36855 | 17.96989 | 23615 ft | 340 kts | 351° |
| 2026-05-01 14:19 | 58.39961 | 17.96411 | 23030 ft | 337 kts | 351° |
| 2026-05-01 14:19 | 58.42284 | 17.95976 | 22598 ft | 335 kts | 351° |
| 2026-05-01 14:19 | 58.44604 | 17.95540 | 22185 ft | 333 kts | 351° |
| 2026-05-01 14:19 | 58.46893 | 17.95110 | 21750 ft | 332 kts | 351° |
| 2026-05-01 14:20 | 58.49158 | 17.94685 | 21324 ft | 330 kts | 351° |
| 2026-05-01 14:20 | 58.53685 | 17.93833 | 20481 ft | 327 kts | 350° |
| 2026-05-01 14:20 | 58.55959 | 17.93404 | 20037 ft | 326 kts | 350° |
| 2026-05-01 14:21 | 58.58196 | 17.92982 | 19617 ft | 324 kts | 350° |
| 2026-05-01 14:21 | 58.60425 | 17.92559 | 19203 ft | 323 kts | 350° |
| 2026-05-01 14:21 | 58.62630 | 17.92142 | 18764 ft | 322 kts | 350° |
| 2026-05-01 14:22 | 58.67051 | 17.91304 | 17890 ft | 319 kts | 350° |
| 2026-05-01 14:22 | 58.69270 | 17.90881 | 17455 ft | 318 kts | 350° |
| 2026-05-01 14:22 | 58.71459 | 17.90463 | 17062 ft | 317 kts | 349° |
| 2026-05-01 14:22 | 58.73622 | 17.90048 | 16651 ft | 317 kts | 350° |
| 2026-05-01 14:23 | 58.75817 | 17.89628 | 16205 ft | 316 kts | 350° |
| 2026-05-01 14:23 | 58.77987 | 17.89215 | 15806 ft | 315 kts | 350° |
| 2026-05-01 14:23 | 58.80156 | 17.88948 | 15355 ft | 318 kts | 357° |
| 2026-05-01 14:23 | 58.82367 | 17.89603 | 14967 ft | 326 kts | 11° |
| 2026-05-01 14:24 | 58.84510 | 17.91233 | 14965 ft | 337 kts | 19° |
| 2026-05-01 14:24 | 58.86624 | 17.93198 | 14969 ft | 339 kts | 20° |
| 2026-05-01 14:24 | 58.88718 | 17.95196 | 14989 ft | 339 kts | 21° |
| 2026-05-01 14:24 | 58.90846 | 17.97228 | 15047 ft | 339 kts | 21° |
| 2026-05-01 14:25 | 58.92954 | 17.99240 | 15050 ft | 339 kts | 20° |
| 2026-05-01 14:25 | 58.95061 | 18.01246 | 15026 ft | 340 kts | 20° |
| 2026-05-01 14:25 | 58.97167 | 18.03249 | 14856 ft | 341 kts | 20° |
| 2026-05-01 14:25 | 58.99303 | 18.05276 | 14393 ft | 341 kts | 20° |
| 2026-05-01 14:26 | 59.01400 | 18.07270 | 13918 ft | 340 kts | 20° |
| 2026-05-01 14:26 | 59.05626 | 18.11301 | 13017 ft | 336 kts | 20° |
| 2026-05-01 14:26 | 59.07696 | 18.13275 | 12630 ft | 333 kts | 20° |
| 2026-05-01 14:27 | 59.09835 | 18.14821 | 12178 ft | 325 kts | 9° |
| 2026-05-01 14:27 | 59.12027 | 18.15560 | 11735 ft | 318 kts | 0° |
| 2026-05-01 14:27 | 59.14212 | 18.15863 | 11281 ft | 315 kts | 359° |
| 2026-05-01 14:28 | 59.18527 | 18.16329 | 10440 ft | 308 kts | 359° |
| 2026-05-01 14:28 | 59.20636 | 18.16567 | 10283 ft | 294 kts | 359° |
| 2026-05-01 14:28 | 59.22610 | 18.16795 | 10211 ft | 282 kts | 359° |
| 2026-05-01 14:28 | 59.24545 | 18.17019 | 10006 ft | 274 kts | 358° |
| 2026-05-01 14:29 | 59.26430 | 18.17233 | 9622 ft | 273 kts | 358° |
| 2026-05-01 14:29 | 59.28318 | 18.17450 | 9260 ft | 271 kts | 358° |
| 2026-05-01 14:30 | 59.33876 | 18.18099 | 8258 ft | 266 kts | 358° |
| 2026-05-01 14:30 | 59.35706 | 18.18313 | 7927 ft | 264 kts | 358° |
| 2026-05-01 14:30 | 59.37537 | 18.18529 | 7586 ft | 263 kts | 358° |
| 2026-05-01 14:31 | 59.41184 | 18.18960 | 6893 ft | 262 kts | 358° |
| 2026-05-01 14:31 | 59.42995 | 18.19175 | 6553 ft | 261 kts | 358° |
| 2026-05-01 14:31 | 59.44798 | 18.19388 | 6217 ft | 261 kts | 358° |
| 2026-05-01 14:31 | 59.46604 | 18.19603 | 5884 ft | 260 kts | 358° |
| 2026-05-01 14:32 | 59.48408 | 18.19818 | 5550 ft | 259 kts | 358° |
| 2026-05-01 14:32 | 59.50195 | 18.20030 | 5219 ft | 258 kts | 358° |
| 2026-05-01 14:32 | 59.52005 | 18.20263 | 4885 ft | 259 kts | 0° |
| 2026-05-01 14:32 | 59.53772 | 18.20816 | 4547 ft | 261 kts | 7° |
| 2026-05-01 14:33 | 59.55526 | 18.21754 | 4213 ft | 262 kts | 11° |
| 2026-05-01 14:33 | 59.57285 | 18.22805 | 4000 ft | 268 kts | 12° |
| 2026-05-01 14:33 | 59.59058 | 18.23883 | 3983 ft | 268 kts | 12° |
| 2026-05-01 14:33 | 59.60842 | 18.24970 | 3732 ft | 266 kts | 12° |
| 2026-05-01 14:34 | 59.62599 | 18.26033 | 3325 ft | 268 kts | 12° |
| 2026-05-01 14:34 | 59.64363 | 18.27097 | 3007 ft | 266 kts | 12° |
| 2026-05-01 14:34 | 59.66108 | 18.28154 | 2796 ft | 260 kts | 12° |
| 2026-05-01 14:34 | 59.67823 | 18.29120 | 2626 ft | 249 kts | 4° |
| 2026-05-01 14:35 | 59.69442 | 18.28826 | 2478 ft | 227 kts | 330° |
| 2026-05-01 14:35 | 59.70549 | 18.26944 | 2461 ft | 201 kts | 294° |
| 2026-05-01 14:35 | 59.70772 | 18.24413 | 2461 ft | 182 kts | 256° |
| 2026-05-01 14:35 | 59.70253 | 18.22271 | 2568 ft | 167 kts | 242° |
| 2026-05-01 14:36 | 59.69649 | 18.20357 | 2358 ft | 161 kts | 243° |
| 2026-05-01 14:36 | 59.69169 | 18.18427 | 2166 ft | 151 kts | 249° |
| 2026-05-01 14:36 | 59.68821 | 18.16543 | 1982 ft | 142 kts | 253° |
| 2026-05-01 14:36 | 59.68552 | 18.14728 | 1795 ft | 134 kts | 256° |
| 2026-05-01 14:37 | 59.68302 | 18.12953 | 1634 ft | 129 kts | 254° |
| 2026-05-01 14:37 | 59.68061 | 18.11299 | 1501 ft | 125 kts | 256° |
| 2026-05-01 14:37 | 59.67844 | 18.09642 | 1318 ft | 125 kts | 257° |
| 2026-05-01 14:37 | 59.67648 | 18.07970 | 1128 ft | 123 kts | 256° |
| 2026-05-01 14:38 | 59.67446 | 18.06326 | 971 ft | 122 kts | 257° |
| 2026-05-01 14:38 | 59.67248 | 18.04671 | 843 ft | 125 kts | 256° |
| 2026-05-01 14:38 | 59.67043 | 18.03009 | 739 ft | 124 kts | 256° |
| 2026-05-01 14:38 | 59.66828 | 18.01362 | 565 ft | 122 kts | 255° |
| 2026-05-01 14:39 | 59.66617 | 17.99721 | 392 ft | 125 kts | 256° |
| 2026-05-01 14:39 | 59.66411 | 17.98055 | 216 ft | 123 kts | 255° |
| 2026-05-01 14:39 | 59.66211 | 17.96488 | 128 ft | 108 kts | 255° |
| 2026-05-01 14:39 | 59.66053 | 17.95265 | 135 ft | 74 kts | 256° |
| 2026-05-01 14:40 | 59.65947 | 17.94412 | 127 ft | 55 kts | 255° |
| 2026-05-01 14:40 | 59.65876 | 17.93867 | 120 ft | 26 kts | 255° |
| 2026-05-01 14:40 | 59.65791 | 17.93629 | 119 ft | 15 kts | 225° |
| 2026-05-01 14:40 | 59.65717 | 17.93475 | 116 ft | 16 kts | 227° |
| 2026-05-01 14:41 | 59.65657 | 17.93351 | 115 ft | 8 kts | 225° |
| 2026-05-01 14:41 | 59.65594 | 17.93300 | 113 ft | 11 kts | 171° |
| 2026-05-01 14:41 | 59.65509 | 17.93340 | 112 ft | 12 kts | 171° |
| 2026-05-01 14:41 | 59.65422 | 17.93360 | 114 ft | 12 kts | 172° |
| 2026-05-01 14:42 | 59.65350 | 17.93396 | 116 ft | 8 kts | 166° |
| 2026-05-01 14:42 | 59.65314 | 17.93419 | 117 ft | 4 kts | 144° |
| 2026-05-01 14:42 | 59.65305 | 17.93463 | 118 ft | 3 kts | 76° |
| 2026-05-01 14:42 | 59.65310 | 17.93501 | 118 ft | 2 kts | 76° |
| 2026-05-01 14:43 | 59.65314 | 17.93530 | 119 ft | 2 kts | 75° |
| 2026-05-01 14:43 | 59.65320 | 17.93576 | 119 ft | 0 kts | 75° |
| 2026-05-01 14:43 | 59.65320 | 17.93575 | 119 ft | 0 kts | 75° |